This is the latest recevied weather packets stored in our database for station/object N3LF. If no packets are shown the sender has not sent any weather packets the latest 10 day(s).
| Time | Temp. | Humidity | Pressure | Rain* | Wind** | Luminosity | Snow |
|---|---|---|---|---|---|---|---|
| 1788626226 | 37.22° C | 54% | 1016.7 hPa | 0 mm | - | 605 W/m² | - |
| 1788625923 | 36.11° C | 55% | 1016.8 hPa | 0 mm | - | 596 W/m² | - |
| 1788625619 | 35° C | 57% | 1016.8 hPa | 0 mm | - | 590 W/m² | - |
| 1788625318 | 34.44° C | 60% | 1016.9 hPa | 0 mm | - | 582 W/m² | - |
| 1788625013 | 35.56° C | 59% | 1016.9 hPa | 0 mm | - | 575 W/m² | - |
| 1788624711 | 35° C | 59% | 1016.9 hPa | 0 mm | - | 567 W/m² | - |
| 1788624410 | 35° C | 59% | 1016.8 hPa | 0 mm | - | 561 W/m² | - |
| 1788624109 | 33.89° C | 62% | 1016.8 hPa | 0 mm | - | 552 W/m² | - |
| 1788623804 | 35° C | 62% | 1016.9 hPa | 0 mm | - | 546 W/m² | - |
| 1788623503 | 33.89° C | 64% | 1016.8 hPa | 0 mm | - | 538 W/m² | - |
| 1788623197 | 34.44° C | 63% | 1017 hPa | 0 mm | - | 527 W/m² | - |
| 1788622893 | 33.89° C | 64% | 1017 hPa | 0 mm | - | 520 W/m² | - |
| 1788622589 | 33.89° C | 65% | 1017 hPa | 0 mm | - | 509 W/m² | - |
| 1788622284 | 33.33° C | 69% | 1017.1 hPa | 0 mm | - | 499 W/m² | - |
| 1788621979 | 33.33° C | 68% | 1017 hPa | 0 mm | - | 487 W/m² | - |
| 1788621673 | 32.78° C | 72% | 1017.3 hPa | 0 mm | - | 477 W/m² | - |
| 1788621369 | 33.33° C | 70% | 1017.2 hPa | 0 mm | - | 463 W/m² | - |
| 1788621064 | 32.78° C | 73% | 1017.2 hPa | 0 mm | - | 447 W/m² | - |
| 1788620759 | 33.33° C | 70% | 1017.3 hPa | 0 mm | - | 436 W/m² | - |
| 1788620458 | 33.33° C | 72% | 1017.3 hPa | 0 mm | - | 429 W/m² | - |
| 1788620156 | 32.78° C | 76% | 1017.5 hPa | 0 mm | - | 414 W/m² | - |
| 1788619855 | 32.78° C | 75% | 1017.4 hPa | 0 mm | - | 401 W/m² | - |
| 1788619551 | 32.22° C | 77% | 1017.4 hPa | 0 mm | - | 395 W/m² | - |
| 1788619249 | 31.67° C | 78% | 1017.4 hPa | 0 mm | - | 381 W/m² | - |
| 1788618943 | 30.56° C | 81% | 1017.5 hPa | 0 mm | - | 374 W/m² | - |
* Rain latest hour (hover to see other rain measurements)
** Current wind speed in m/s (hover to see current wind gust speed)